logo
App data

Chainz 2: Relinked

It’s link-matching madness with Chainz 2: Relinked. Rotate the colored links to make matches of three or more in Classic Mode. Pit your link-matching skills against the clock in Arcade Mode. Ponder every precious move in Strategy Mode. Twist your brain and clear all the links in Puzzle Mode.
Store | Hub | SteamDB
Developer: MumboJumbo Publisher: MumboJumbo
Genre: Casual
Languages: English, French, German, Italian, Spanish - Spain, Swedish
Tags: Casual (23), Puzzle (6), Match 3 (5)
Category: Single-player
Release date: Jul 13, 2009
Price: $9.99
Owners: 0 .. 20,000
Followers: 88
Peak concurrent players yesterday: 8
Playtime total: 15:54 (average) 16:20 (median)

Steam Spy is still in beta, so expect major bugs.

Owners data:

Access restricted.

This feature is only available to users with special access rights. Sorry.

If you want to proceed, you need to register or log in first and then back Steam Spy on Patreon. Look for Indie or Pro pledge.

Don't forget to use the same email as on Steam Spy!

Audience in 2 weeks:

Access restricted.

This feature is only available to users with special access rights. Sorry.

If you want to proceed, you need to register or log in first and then back Steam Spy on Patreon. Look for Indie or Pro pledge.

Don't forget to use the same email as on Steam Spy!

Peak daily concurrent players:

CCU data courtesy of SteamDB. Used with permission.

Hourly concurrent players:

YouTube:

The views data is based on top 50 videos uploaded last week. Actual number of views might be more than the number shown.

The displayed number of videos uploaded yesterday is limited to 50, so if there were more videos uploaded, the number will still show 50.

If the game has commonly used word as its name (like "FEAR" or "Volume") its number of Youtube views might be wrong.

Games similar to this one:

# Game Release date
Price
Score rank
(Userscore / Metascore)
Owners
Players
Playtime (Median)
1 Puppy Dog: Jigsaw Puzzles Jul 19, 2016 $0.99100% (100%)20,000 .. 50,0000%00:00 (00:00)
2 Legends of Atlantis: Exodus Apr 9, 2012 $6.99N/A (N/A)0 .. 20,0000%00:00 (00:00)
3 Peggle Nights Oct 15, 2008 $4.9990% (94%/76%)200,000 .. 500,0001.08%00:28 (00:18)
4 Tradewinds Classics Jul 17, 2009 $4.99N/A (N/A)0 .. 20,0000%00:00 (00:00)
5 Farm Frenzy 2 Aug 27, 2008 $4.99N/A (N/A)0 .. 20,0000%00:00 (00:00)
6 Gnomes Garden 2 May 18, 2016 $4.99N/A (N/A)20,000 .. 50,0000.51%11:46 (03:55)
7 Chuzzle Deluxe Aug 30, 2006 $4.9984% (92%)50,000 .. 100,0000%00:00 (00:00)
8 Zuma Deluxe Aug 30, 2006 $4.9984% (92%)50,000 .. 100,0000%00:00 (00:00)
9 Princess Maker 2 Refine Sep 28, 2016 $19.9984% (92%)20,000 .. 50,0007.69%02:49 (01:05)
10 YOU DON’T KNOW JACK Feb 8, 2011 N/A84% (92%/71%)0 .. 20,0000%00:00 (00:00)
11 Hidden Object Bundle 4 in 1 Jun 1, 2014 $7.9980% (91%)20,000 .. 50,0003.92%00:34 (00:22)
12 Kitty Cat: Jigsaw Puzzles Jul 18, 2016 $0.9980% (91%)50,000 .. 100,0000%00:00 (00:00)
13 Gemini Lost Sep 24, 2009 $6.99N/A (N/A)0 .. 20,0000%00:00 (00:00)
14 Bejeweled 2 Deluxe Aug 30, 2006 $4.9977% (90%)50,000 .. 100,0002.56%00:01 (00:00)
15 Putt-Putt and Fatty Bear's Activity Pack Mar 25, 1994 $4.99N/A (N/A)20,000 .. 50,0000%00:00 (00:00)
16 Alice's Patchwork Mar 3, 2016 $4.9974% (89%)20,000 .. 50,0000.47%01:50 (00:36)
17 Puzzler World May 28, 2010 $4.9971% (88%)50,000 .. 100,0000%00:00 (00:00)
18 Baseball Mogul 2015 Apr 3, 2014 $4.99N/A (N/A)20,000 .. 50,0000%00:00 (00:00)
19 Shufflepuck Cantina Deluxe Dec 6, 2013 $9.9971% (88%)100,000 .. 200,0000.2%04:16 (01:25)
20 Stikbold! A Dodgeball Adventure Apr 1, 2016 $9.9971% (88%)50,000 .. 100,0000%00:00 (00:00)
21 Luxor 3 Nov 13, 2007 $9.9971% (88%)20,000 .. 50,0000%00:00 (00:00)
22 Mr Nibbles Forever Apr 29, 2016 $0.99N/A (N/A)0 .. 20,0000%00:00 (00:00)
23 Big Thinkers 1st Grade Aug 18, 2015 $6.99N/A (N/A)0 .. 20,0000%00:00 (00:00)
24 Pretty Girls Panic! Dec 20, 2016 $1.9963% (85%)20,000 .. 50,0001.59%03:02 (01:00)
25 Plant Tycoon Sep 27, 2007 $9.9963% (85%)0 .. 20,0000%00:00 (00:00)
26 Brink of Consciousness: The Lonely Hearts Murders Nov 24, 2014 $9.9963% (85%)0 .. 20,0000%00:00 (00:00)
27 Among the Heavens Nov 6, 2015 $2.9963% (85%)50,000 .. 100,0000%00:00 (00:00)
28 Hidden Object 6-in-1 bundle Mar 16, 2016 $11.9961% (84%)20,000 .. 50,0000%00:00 (00:00)
29 Little Racers STREET Feb 6, 2014 $5.9961% (84%/62%)100,000 .. 200,0000.61%01:05 (00:43)
30 Space Codex May 9, 2016 $0.9961% (84%)100,000 .. 200,0000.35%00:36 (00:12)
31 Cranky Cat Jun 5, 2013 $2.99N/A (N/A)0 .. 20,0000%00:00 (00:00)
32 BasketBelle Dec 9, 2014 $4.9958% (83%)0 .. 20,0000%00:00 (00:00)
33 My Riding Stables: Life with Horses Mar 27, 2014 $14.9958% (83%)0 .. 20,0000%00:00 (00:00)
34 Gnomes Garden Dec 18, 2015 $4.9958% (83%)20,000 .. 50,0000.4%11:45 (03:55)
35 Urban Trial Freestyle Sep 18, 2013 Free56% (82%/58%)100,000 .. 200,0000%00:00 (00:00)
36 Venice Deluxe Jun 26, 2007 $4.99N/A (N/A)20,000 .. 50,0000%00:00 (00:00)
37 Mahjong Destiny Jun 17, 2016 $1.9952% (80%)50,000 .. 100,0000%00:00 (00:00)
38 Combat Wings: Battle of Britain Oct 14, 2009 $4.9952% (80%)100,000 .. 200,0000%00:00 (00:00)
39 Rotastic Oct 11, 2012 $9.99N/A (N/A)0 .. 20,0000%00:00 (00:00)
40 7 Wonders: Treasures of Seven Nov 14, 2008 $9.9952% (80%)20,000 .. 50,0000%00:00 (00:00)
41 The Wizard's Pen Sep 16, 2008 $4.99N/A (N/A)20,000 .. 50,0000%00:00 (00:00)
42 Crash Dive Jul 6, 2015 $6.9952% (80%)0 .. 20,0000%00:00 (00:00)
43 Virtual Villagers - The Secret City May 28, 2008 $9.99N/A (N/A)0 .. 20,0000%00:00 (00:00)
44 Crash Time 3 Nov 25, 2009 $5.9952% (80%)20,000 .. 50,0000%00:00 (00:00)
45 Radial-G : Racing Revolved Mar 28, 2016 $9.9952% (80%)0 .. 20,0000%00:00 (00:00)
46 Qvadriga Jun 13, 2014 $19.9949% (79%/72%)20,000 .. 50,0002.17%00:11 (00:03)
47 Sea Legends: Phantasmal Light Collector's Edition Jan 15, 2012 $4.9949% (79%)20,000 .. 50,0000%00:00 (00:00)
48 Elementary My Dear Majesty! Nov 15, 2013 $0.9946% (77%)20,000 .. 50,0000%00:00 (00:00)
49 Typer Shark! Deluxe Aug 30, 2006 $4.9946% (77%)20,000 .. 50,0000%00:00 (00:00)
50 Hotel Dash Suite Success Dec 24, 2009 $6.99N/A (N/A)0 .. 20,0000%00:00 (00:00)
51 Virtual Villagers: The Lost Children Feb 14, 2007 $9.99N/A (N/A)0 .. 20,0000%00:00 (00:00)
52 Mystery Case Files: Madame Fate Dec 14, 2007 $6.99N/A (N/A)0 .. 20,0000%00:00 (00:00)
53 Runaway Express Mystery Sep 23, 2014 $6.99N/A (N/A)0 .. 20,0000%00:00 (00:00)
54 Toilet Tycoon Mar 1, 2000 $4.9942% (75%)0 .. 20,0000%00:00 (00:00)
55 Pretty Girls Mahjong Solitaire Aug 24, 2015 $4.9942% (75%)20,000 .. 50,0000.99%03:02 (01:00)
56 Amazing Adventures Around the World Sep 17, 2008 $4.99N/A (N/A)20,000 .. 50,0000%00:00 (00:00)
57 Vehicle Simulator Mar 27, 2009 $2040% (74%)0 .. 20,0000%00:00 (00:00)
58 Home Design 3D Jan 30, 2015 $9.9940% (74%)20,000 .. 50,0000.94%15:10 (05:03)
59 Zombie Solitaire Nov 15, 2013 $8.9940% (74%)20,000 .. 50,0002.17%00:15 (00:05)
60 Evolution Planet: Gold Edition Jul 7, 2016 $4.99N/A (N/A)0 .. 20,0000%00:00 (00:00)
61 Ski Region Simulator - Gold Edition Jan 16, 2013 $8.9938% (73%)20,000 .. 50,0000%00:00 (00:00)
62 Mystery P.I. - Lost in Los Angeles Jul 27, 2009 $4.99N/A (N/A)20,000 .. 50,0000%00:00 (00:00)
63 StuntMANIA Reloaded Nov 13, 2014 $4.9936% (72%)20,000 .. 50,0000%00:00 (00:00)
64 Cooking Dash Aug 12, 2009 $9.99N/A (N/A)0 .. 20,0000%00:00 (00:00)
65 Football Mogul 2014 Sep 4, 2013 $0.99N/A (N/A)20,000 .. 50,0000%00:00 (00:00)
66 aerofly RC 7 Nov 6, 2014 $39.9933% (70%)0 .. 20,0000%00:00 (00:00)
67 Monster Mash Jul 17, 2009 $4.99N/A (N/A)0 .. 20,0000%00:00 (00:00)
68 Mystery P.I. - The Lottery Ticket Oct 16, 2007 $4.99N/A (N/A)20,000 .. 50,0000%00:00 (00:00)
69 Diner Mania Jun 25, 2015 $3.9931% (69%)0 .. 20,0000%00:00 (00:00)
70 MiniDrivers Aug 20, 2015 $5.9931% (69%)20,000 .. 50,0000%00:00 (00:00)
71 Polaris Sector Mar 22, 2016 $39.9930% (68%/76%)0 .. 20,0000%00:00 (00:00)
72 Chocolatier: Decadence by Design Aug 12, 2009 $9.9930% (68%)0 .. 20,0000%00:00 (00:00)
73 Mystery P.I. - The Vegas Heist Jun 4, 2008 $4.99N/A (N/A)20,000 .. 50,0005.26%00:01 (00:00)
74 Luxor Jun 10, 2008 $9.99N/A (N/A)0 .. 20,0000%00:00 (00:00)
75 Pro Cycling Manager 2014 Jun 19, 2014 $9.9924% (64%)20,000 .. 50,0000%00:00 (00:00)
76 Castle: Never Judge a Book by its Cover Jul 9, 2013 N/A24% (64%)20,000 .. 50,0000%00:00 (00:00)
77 City Life 2008 Jul 18, 2008 $9.9924% (64%)20,000 .. 50,0000%00:00 (00:00)
78 PAC-MAN CHAMPIONSHIP EDITION 2 Sep 13, 2016 $12.9923% (63%)50,000 .. 100,0001%14:40 (04:53)
79 Bridge It + Nov 18, 2013 $6.9923% (63%)20,000 .. 50,0000%00:00 (00:00)
80 Aerofly FS 1 Flight Simulator Oct 17, 2012 $19.9922% (62%)0 .. 20,0000%00:00 (00:00)
81 Meridian: Age of Invention Jan 28, 2013 $2.9921% (61%)20,000 .. 50,0000%00:00 (00:00)
82 DinerTown Tycoon Sep 30, 2009 $9.99N/A (N/A)0 .. 20,0000%00:00 (00:00)
83 Air Conflicts: Secret Wars Sep 30, 2011 $5.9921% (61%/65%)50,000 .. 100,0000%00:00 (00:00)
84 Zooloretto Nov 1, 2011 $2.99N/A (N/A)0 .. 20,0000%00:00 (00:00)
85 Jane Angel: Templar Mystery Dec 10, 2009 $4.99N/A (N/A)0 .. 20,0000%00:00 (00:00)
86 Solitaire Christmas. Match 2 Cards Dec 24, 2015 $4.9920% (60%)20,000 .. 50,0000.51%01:59 (00:39)
87 Cities in Motion 2 Apr 2, 2013 $19.9917% (58%/72%)500,000 .. 1,000,0000.62%02:20 (04:03)
88 Hacker Evolution: Untold Sep 14, 2010 $4.9917% (58%)200,000 .. 500,0000%00:00 (00:00)
89 Riding Star - Horse Championship! Mar 27, 2014 $9.99N/A (N/A)0 .. 20,0000%00:00 (00:00)
90 Mystery P.I. - The New York Fortune Jan 14, 2009 $4.99N/A (N/A)20,000 .. 50,0000%00:00 (00:00)
91 Pacific Storm Allies May 25, 2007 $7.9913% (53%/60%)50,000 .. 100,0000%00:00 (00:00)
92 Speed Kills May 16, 2014 $9.9913% (52%)200,000 .. 500,0000.3%01:00 (00:40)
93 Luxor: Quest for the Afterlife Dec 15, 2008 $9.99N/A (N/A)20,000 .. 50,0000%00:00 (00:00)
94 Poker Pretty Girls Battle: Texas Hold'em Oct 21, 2015 $9.9913% (52%)20,000 .. 50,0001.41%03:02 (01:00)
95 Kumoon : Ballistic Physics Puzzle Nov 10, 2015 $2.9912% (51%)0 .. 20,0000%00:00 (00:00)
96 Firefighters 2014 May 21, 2014 $19.9911% (50%)50,000 .. 100,0000%00:00 (00:00)
97 Ludo Supremo Jun 8, 2016 $1.9911% (50%)20,000 .. 50,0000%00:00 (00:00)
98 300 Dwarves Jun 17, 2013 $6.9911% (49%)0 .. 20,0000%00:00 (00:00)
99 Shannon Tweed's Attack Of The Groupies Apr 1, 2014 $4.99N/A (N/A)0 .. 20,0000%00:00 (00:00)
100 EVEREST VR Aug 2, 2016 $9.9910% (47%)0 .. 20,0000%00:00 (00:00)
101 Lords of Football Apr 5, 2013 $14.999% (46%/52%)20,000 .. 50,0000%00:00 (00:00)
102 Transport Giant Jun 8, 2004 $9.999% (45%)20,000 .. 50,0000%00:00 (00:00)
103 Theme Park Studio Dec 2, 2016 $29.998% (44%)0 .. 20,0007.14%00:01 (00:00)
104 Ship Simulator: Maritime Search and Rescue Jul 1, 2014 $17.997% (42%)20,000 .. 50,00010%00:31 (00:15)
105 Luxor 2 Dec 8, 2005 $9.99N/A (N/A)20,000 .. 50,0000%00:00 (00:00)
106 Silent Hunter 5: Battle of the Atlantic Mar 2010 $9.997% (40%/62%)50,000 .. 100,0000%00:00 (00:00)
107 Echelon Apr 15, 2001 $3.996% (39%/70%)20,000 .. 50,0000%00:00 (00:00)
108 RECYCLE Sep 3, 2014 $9.996% (38%)20,000 .. 50,0000%00:00 (00:00)
109 Firefighters - The Simulation Sep 18, 2012 $14.99N/A (N/A)0 .. 20,0000%00:00 (00:00)
110 Industry Empire Jul 30, 2014 $19.994% (31%)20,000 .. 50,0000%00:00 (00:00)
111 Diner Dash: Hometown Hero Aug 12, 2009 $9.994% (31%)0 .. 20,0000%00:00 (00:00)
112 Tetris Ultimate Dec 10, 2015 $14.993% (30%)0 .. 20,0000%00:00 (00:00)
113 City Play May 19, 2016 $3.99N/A (N/A)0 .. 20,0000%00:00 (00:00)
114 The Terminal 2 Aug 8, 2014 $4.992% (24%)0 .. 20,0000%00:00 (00:00)
115 G-Ball May 28, 2014 $0.992% (22%)0 .. 20,0000%00:00 (00:00)
116 Airline Tycoon 2 Oct 24, 2011 $9.992% (16%/57%)50,000 .. 100,0000%00:00 (00:00)
117 The Flying Dutchman Sep 12, 2014 $4.991% (3%)0 .. 20,0000%00:00 (00:00)
118 Dessert Storm Oct 23, 2016 $0.99N/A (N/A)50,000 .. 100,0000.55%04:33 (01:31)
119 Discovery! A Seek and Find Adventure Jul 29, 2008 $9.99N/A (N/A)0 .. 20,0000%00:00 (00:00)
120 Bubble Blowout Oct 24, 2016 $0.99N/A (N/A)20,000 .. 50,0000%00:00 (00:00)
121 Barnyard Mahjong 3 Jul 29, 2016 $1.99N/A (N/A)50,000 .. 100,0000%00:00 (00:00)
122 Them - The Summoning May 16, 2014 $4.99N/A (N/A)0 .. 20,0000%00:00 (00:00)
123 Farm Frenzy 3 Sep 11, 2009 $9.99N/A (N/A)0 .. 20,0000%00:00 (00:00)
124 Rush for gold: California Mar 9, 2016 $3.99N/A (N/A)20,000 .. 50,0000%00:00 (00:00)
125 The Hidden Dragon Jul 26, 2016 $2.99N/A (N/A)0 .. 20,0000%00:00 (00:00)
126 Tropical Fish Shop 2 Feb 10, 2012 $3.99N/A (N/A)0 .. 20,0000%00:00 (00:00)
127 Nokori Mar 25, 2016 $1.99N/A (N/A)0 .. 20,0000%00:00 (00:00)
128 Fantastic 4 In A Row 2 Aug 15, 2016 $0.99N/A (N/A)50,000 .. 100,0000%00:00 (00:00)
129 Bayla Bunny Jun 13, 2016 $1.99N/A (N/A)50,000 .. 100,0000%00:00 (00:00)
130 TriJinx: A Kristine Kross Mystery Dec 31, 2007 $6.99N/A (N/A)0 .. 20,0000%00:00 (00:00)

Tags over time:

Access restricted.

This feature is only available to users with special access rights. Sorry.

If you want to proceed, you need to register or log in first and then back Steam Spy on Patreon. Look for Indie or Pro pledge.

Don't forget to use the same email as on Steam Spy!

Owners of this game also own:

Access restricted.

This feature is only available to users with special access rights. Sorry.

If you want to proceed, you need to register or log in first and then back Steam Spy on Patreon. Look for Indie or Pro pledge.

Don't forget to use the same email as on Steam Spy!

Playtime distribution:

Access restricted.

This feature is only available to users with special access rights. Sorry.

If you want to proceed, you need to register or log in first and then back Steam Spy on Patreon. Look for Indie or Pro pledge.

Don't forget to use the same email as on Steam Spy!

Playtime (2 weeks):

Access restricted.

This feature is only available to users with special access rights. Sorry.

If you want to proceed, you need to register or log in first and then back Steam Spy on Patreon. Look for Indie or Pro pledge.

Don't forget to use the same email as on Steam Spy!

User reviews:

Login required.

Please register or log in to see this information.